createdAt,value
2022-09-07T00:00:15.583Z,1011.43
2022-09-07T00:01:15.603Z,1011.46
2022-09-07T00:02:15.623Z,1011.41
2022-09-07T00:03:15.761Z,1011.42
2022-09-07T00:04:15.736Z,1011.39
2022-09-07T00:05:15.684Z,1011.33
2022-09-07T00:06:15.704Z,1011.32
2022-09-07T00:07:15.725Z,1011.28
2022-09-07T00:08:15.743Z,1011.22
2022-09-07T00:09:15.768Z,1011.24
2022-09-07T00:10:15.785Z,1011.16
2022-09-07T00:11:15.806Z,1011.18
2022-09-07T00:12:15.826Z,1011.14
2022-09-07T00:13:15.845Z,1011.15
2022-09-07T00:14:15.866Z,1011.07
2022-09-07T00:15:15.885Z,1011.07
2022-09-07T00:16:15.967Z,1011.06
2022-09-07T00:17:15.928Z,1011.06
2022-09-07T00:18:15.947Z,1011.07
2022-09-07T00:19:15.967Z,1011.07
2022-09-07T00:20:15.988Z,1011.13
2022-09-07T00:21:16.024Z,1011.14
2022-09-07T00:22:16.028Z,1011.18
2022-09-07T00:23:16.050Z,1011.19
2022-09-07T00:24:16.070Z,1011.18
2022-09-07T00:25:16.090Z,1011.20
2022-09-07T00:26:16.114Z,1011.18
2022-09-07T00:27:16.127Z,1011.13
2022-09-07T00:28:16.148Z,1011.09
2022-09-07T00:29:16.169Z,1011.07
2022-09-07T00:30:16.187Z,1011.04
2022-09-07T00:31:16.255Z,1011.01
2022-09-07T00:32:16.228Z,1011.01
2022-09-07T00:33:16.248Z,1011.06
2022-09-07T00:34:16.269Z,1011.11
2022-09-07T00:35:16.290Z,1011.12
2022-09-07T00:36:16.308Z,1011.12
2022-09-07T00:37:16.327Z,1011.09
2022-09-07T00:38:16.349Z,1011.09
2022-09-07T00:39:16.366Z,1011.05
2022-09-07T00:40:16.389Z,1011.03
2022-09-07T00:41:16.408Z,1011.02
2022-09-07T00:42:16.428Z,1011.04
2022-09-07T00:43:16.447Z,1011.03
2022-09-07T00:44:16.467Z,1011.03
2022-09-07T00:45:16.493Z,1011.01
2022-09-07T00:46:16.560Z,1011.08
2022-09-07T00:47:16.529Z,1011.07
2022-09-07T00:48:16.551Z,1011.03
2022-09-07T00:49:16.566Z,1011.04
2022-09-07T00:50:16.588Z,1011.06
2022-09-07T00:51:16.605Z,1011.05
2022-09-07T00:52:16.626Z,1011.04
2022-09-07T00:53:16.647Z,1011.04
2022-09-07T00:54:16.667Z,1011.07
2022-09-07T00:55:16.684Z,1011.06
2022-09-07T00:56:16.706Z,1010.99
2022-09-07T00:57:16.723Z,1011.00
2022-09-07T00:58:16.743Z,1011.00
2022-09-07T00:59:16.763Z,1010.99
2022-09-07T01:00:16.784Z,1010.98
2022-09-07T01:01:16.858Z,1011.00
2022-09-07T01:02:16.901Z,1011.03
2022-09-07T01:03:16.854Z,1011.01
2022-09-07T01:04:16.871Z,1011.02
2022-09-07T01:05:16.879Z,1010.98
2022-09-07T01:06:16.902Z,1010.97
2022-09-07T01:07:16.930Z,1010.99
2022-09-07T01:08:16.946Z,1010.93
2022-09-07T01:09:16.959Z,1010.93
2022-09-07T01:10:16.979Z,1010.92
2022-09-07T01:11:17.000Z,1010.92
2022-09-07T01:12:17.018Z,1010.95
2022-09-07T01:13:17.036Z,1010.92
2022-09-07T01:14:17.058Z,1010.94
2022-09-07T01:15:17.075Z,1010.93
2022-09-07T01:16:17.127Z,1010.99
2022-09-07T01:17:17.114Z,1010.98
2022-09-07T01:18:17.135Z,1010.92
2022-09-07T01:19:17.154Z,1010.90
2022-09-07T01:20:17.173Z,1010.89
2022-09-07T01:21:17.192Z,1010.88
2022-09-07T01:22:17.215Z,1010.87
2022-09-07T01:23:17.230Z,1010.89
2022-09-07T01:24:17.251Z,1010.85
2022-09-07T01:25:17.274Z,1010.84
2022-09-07T01:26:17.291Z,1010.85
2022-09-07T01:27:17.312Z,1010.86
2022-09-07T01:28:17.327Z,1010.85
2022-09-07T01:29:17.350Z,1010.78
2022-09-07T01:30:17.367Z,1010.79
2022-09-07T01:31:17.428Z,1010.81
2022-09-07T01:32:17.405Z,1010.79
2022-09-07T01:33:17.422Z,1010.80
2022-09-07T01:34:17.444Z,1010.76
2022-09-07T01:35:17.463Z,1010.78
2022-09-07T01:36:17.484Z,1010.80
2022-09-07T01:37:17.501Z,1010.77
2022-09-07T01:38:17.518Z,1010.79
2022-09-07T01:39:17.539Z,1010.74
2022-09-07T01:40:17.558Z,1010.74
2022-09-07T01:41:17.577Z,1010.68
2022-09-07T01:42:17.597Z,1010.68
2022-09-07T01:43:17.613Z,1010.70
2022-09-07T01:44:17.633Z,1010.65
2022-09-07T01:45:17.657Z,1010.68
2022-09-07T01:46:17.739Z,1010.68
2022-09-07T01:47:17.694Z,1010.70
2022-09-07T01:48:17.714Z,1010.73
2022-09-07T01:49:17.732Z,1010.71
2022-09-07T01:50:17.752Z,1010.74
2022-09-07T01:51:17.768Z,1010.74
2022-09-07T01:52:17.786Z,1010.74
2022-09-07T01:53:17.812Z,1010.76
2022-09-07T01:54:17.826Z,1010.76
2022-09-07T01:55:17.846Z,1010.76
2022-09-07T01:56:17.863Z,1010.77
2022-09-07T01:57:17.886Z,1010.77
2022-09-07T01:58:17.902Z,1010.80
2022-09-07T01:59:17.921Z,1010.76
2022-09-07T02:00:17.941Z,1010.83
2022-09-07T02:01:17.979Z,1010.75
2022-09-07T02:02:18.078Z,1010.75
2022-09-07T02:03:17.998Z,1010.74
2022-09-07T02:04:18.014Z,1010.75
2022-09-07T02:05:18.034Z,1010.72
2022-09-07T02:06:18.055Z,1010.73
2022-09-07T02:07:18.073Z,1010.73
2022-09-07T02:08:18.092Z,1010.73
2022-09-07T02:09:18.111Z,1010.73
2022-09-07T02:10:18.129Z,1010.75
2022-09-07T02:11:18.149Z,1010.71
2022-09-07T02:12:18.167Z,1010.73
2022-09-07T02:13:18.187Z,1010.72
2022-09-07T02:14:18.205Z,1010.76
2022-09-07T02:15:18.222Z,1010.71
2022-09-07T02:16:18.283Z,1010.71
2022-09-07T02:17:18.259Z,1010.69
2022-09-07T02:18:18.280Z,1010.70
2022-09-07T02:19:18.299Z,1010.72
2022-09-07T02:20:18.315Z,1010.73
2022-09-07T02:21:18.340Z,1010.75
2022-09-07T02:22:18.357Z,1010.79
2022-09-07T02:23:18.374Z,1010.78
2022-09-07T02:24:18.393Z,1010.78
2022-09-07T02:25:18.413Z,1010.80
2022-09-07T02:26:18.430Z,1010.79
2022-09-07T02:27:18.448Z,1010.81
2022-09-07T02:28:18.468Z,1010.75
2022-09-07T02:29:18.487Z,1010.73
2022-09-07T02:30:18.506Z,1010.75
2022-09-07T02:31:18.636Z,1010.68
2022-09-07T02:32:18.542Z,1010.69
2022-09-07T02:33:18.561Z,1010.65
2022-09-07T02:34:18.580Z,1010.61
2022-09-07T02:35:18.598Z,1010.58
2022-09-07T02:36:18.617Z,1010.55
2022-09-07T02:37:18.687Z,1010.55
2022-09-07T02:38:18.658Z,1010.55
2022-09-07T02:39:18.674Z,1010.51
2022-09-07T02:40:18.696Z,1010.51
2022-09-07T02:41:18.711Z,1010.52
2022-09-07T02:42:18.730Z,1010.49
2022-09-07T02:43:18.749Z,1010.51
2022-09-07T02:44:18.769Z,1010.48
2022-09-07T02:45:18.793Z,1010.52
2022-09-07T02:46:18.899Z,1010.57
2022-09-07T02:47:18.821Z,1010.58
2022-09-07T02:48:18.851Z,1010.60
2022-09-07T02:49:18.871Z,1010.61
2022-09-07T02:50:18.884Z,1010.58
2022-09-07T02:51:18.900Z,1010.58
2022-09-07T02:52:18.915Z,1010.59
2022-09-07T02:53:18.935Z,1010.59
2022-09-07T02:54:18.953Z,1010.58
2022-09-07T02:55:18.972Z,1010.58
2022-09-07T02:56:18.989Z,1010.63
2022-09-07T02:57:19.011Z,1010.59
2022-09-07T02:58:19.031Z,1010.60
2022-09-07T02:59:19.048Z,1010.55
2022-09-07T03:00:19.064Z,1010.57
2022-09-07T03:01:19.178Z,1010.52
2022-09-07T03:02:19.189Z,1010.55
2022-09-07T03:03:19.119Z,1010.51
2022-09-07T03:04:19.136Z,1010.52
2022-09-07T03:05:19.160Z,1010.58
2022-09-07T03:06:19.175Z,1010.56
2022-09-07T03:07:19.197Z,1010.58
2022-09-07T03:08:19.212Z,1010.55
2022-09-07T03:09:19.230Z,1010.56
2022-09-07T03:10:19.248Z,1010.55
2022-09-07T03:11:19.267Z,1010.51
2022-09-07T03:12:19.284Z,1010.55
2022-09-07T03:13:19.305Z,1010.53
2022-09-07T03:14:19.322Z,1010.51
2022-09-07T03:15:19.342Z,1010.55
2022-09-07T03:16:19.401Z,1010.58
2022-09-07T03:17:19.380Z,1010.57
2022-09-07T03:18:19.396Z,1010.62
2022-09-07T03:19:19.420Z,1010.62
2022-09-07T03:20:19.432Z,1010.61
2022-09-07T03:21:19.451Z,1010.60
2022-09-07T03:22:19.468Z,1010.58
2022-09-07T03:23:19.487Z,1010.58
2022-09-07T03:24:19.508Z,1010.58
2022-09-07T03:25:19.526Z,1010.52
2022-09-07T03:26:19.546Z,1010.53
2022-09-07T03:27:19.561Z,1010.54
2022-09-07T03:28:19.581Z,1010.52
2022-09-07T03:29:19.598Z,1010.48
2022-09-07T03:30:19.620Z,1010.42
2022-09-07T03:31:19.704Z,1010.44
2022-09-07T03:32:19.653Z,1010.42
2022-09-07T03:33:19.680Z,1010.39
2022-09-07T03:34:19.693Z,1010.37
2022-09-07T03:35:19.708Z,1010.34
2022-09-07T03:36:19.726Z,1010.32
2022-09-07T03:37:19.744Z,1010.31
2022-09-07T03:38:19.762Z,1010.32
2022-09-07T03:39:19.780Z,1010.32
2022-09-07T03:40:19.798Z,1010.31
2022-09-07T03:41:19.815Z,1010.35
2022-09-07T03:42:19.838Z,1010.39
2022-09-07T03:43:19.853Z,1010.34
2022-09-07T03:44:19.873Z,1010.34
2022-09-07T03:45:19.893Z,1010.34
2022-09-07T03:46:19.952Z,1010.34
2022-09-07T03:47:19.928Z,1010.30
2022-09-07T03:48:19.946Z,1010.33
2022-09-07T03:49:19.963Z,1010.34
2022-09-07T03:50:19.981Z,1010.37
2022-09-07T03:51:19.998Z,1010.32
2022-09-07T03:52:20.018Z,1010.26
2022-09-07T03:53:20.036Z,1010.24
2022-09-07T03:54:20.055Z,1010.20
2022-09-07T03:55:20.071Z,1010.16
2022-09-07T03:56:20.090Z,1010.17
2022-09-07T03:57:20.111Z,1010.16
2022-09-07T03:58:20.127Z,1010.09
2022-09-07T03:59:20.144Z,1010.16
2022-09-07T04:00:20.161Z,1010.10
2022-09-07T04:01:20.254Z,1010.13
2022-09-07T04:02:20.228Z,1010.13
2022-09-07T04:03:20.217Z,1010.12
2022-09-07T04:04:20.234Z,1010.09
2022-09-07T04:05:20.256Z,1010.13
2022-09-07T04:06:20.274Z,1010.09
2022-09-07T04:07:20.302Z,1010.11
2022-09-07T04:08:20.340Z,1010.15
2022-09-07T04:09:20.328Z,1010.11
2022-09-07T04:10:20.344Z,1010.07
2022-09-07T04:11:20.365Z,1010.11
2022-09-07T04:12:20.383Z,1010.12
2022-09-07T04:13:20.398Z,1010.14
2022-09-07T04:14:20.417Z,1010.14
2022-09-07T04:15:20.433Z,1010.10
2022-09-07T04:16:20.537Z,1010.13
2022-09-07T04:17:20.471Z,1010.08
2022-09-07T04:18:20.488Z,1010.09
2022-09-07T04:19:20.506Z,1010.06
2022-09-07T04:20:20.522Z,1010.11
2022-09-07T04:21:20.541Z,1010.04
2022-09-07T04:22:20.560Z,1010.06
2022-09-07T04:23:20.576Z,1010.05
2022-09-07T04:24:20.594Z,1010.09
2022-09-07T04:25:20.613Z,1010.09
2022-09-07T04:26:20.634Z,1010.10
2022-09-07T04:27:20.649Z,1010.16
2022-09-07T04:28:20.668Z,1010.10
2022-09-07T04:29:20.684Z,1010.13
2022-09-07T04:30:20.703Z,1010.13
2022-09-07T04:31:20.839Z,1010.16
2022-09-07T04:32:20.744Z,1010.17
2022-09-07T04:33:20.757Z,1010.13
2022-09-07T04:34:20.778Z,1010.16
2022-09-07T04:35:20.796Z,1010.17
2022-09-07T04:36:20.813Z,1010.18
2022-09-07T04:37:20.828Z,1010.16
2022-09-07T04:38:20.848Z,1010.18
2022-09-07T04:39:20.864Z,1010.15
2022-09-07T04:40:20.881Z,1010.12
2022-09-07T04:41:20.902Z,1010.13
2022-09-07T04:42:20.921Z,1010.13
2022-09-07T04:43:20.935Z,1010.13
2022-09-07T04:44:20.955Z,1010.19
2022-09-07T04:45:20.973Z,1010.15
2022-09-07T04:46:21.103Z,1010.14
2022-09-07T04:47:21.009Z,1010.12
2022-09-07T04:48:21.028Z,1010.10
2022-09-07T04:49:21.044Z,1010.04
2022-09-07T04:50:21.065Z,1010.03
2022-09-07T04:51:21.093Z,1010.04
2022-09-07T04:52:21.104Z,1010.02
2022-09-07T04:53:21.118Z,1010.05
2022-09-07T04:54:21.134Z,1010.01
2022-09-07T04:55:21.151Z,1010.01
2022-09-07T04:56:21.170Z,1009.98
2022-09-07T04:57:21.187Z,1010.00
2022-09-07T04:58:21.206Z,1009.98
2022-09-07T04:59:21.224Z,1010.00
2022-09-07T05:00:21.240Z,1010.00
2022-09-07T05:01:21.299Z,1009.99
2022-09-07T05:02:21.348Z,1009.97
2022-09-07T05:03:21.295Z,1009.98
2022-09-07T05:04:21.314Z,1009.93
2022-09-07T05:05:21.333Z,1009.94
2022-09-07T05:06:21.349Z,1009.92
2022-09-07T05:07:21.370Z,1009.92
2022-09-07T05:08:21.385Z,1009.93
2022-09-07T05:09:21.403Z,1009.95
2022-09-07T05:10:21.422Z,1009.94
2022-09-07T05:11:24.975Z,1009.92
2022-09-07T05:12:21.455Z,1009.96
2022-09-07T05:13:21.477Z,1009.91
2022-09-07T05:14:21.493Z,1009.88
2022-09-07T05:15:21.513Z,1009.94
2022-09-07T05:16:21.587Z,1009.95
2022-09-07T05:17:21.548Z,1009.88
2022-09-07T05:18:21.569Z,1009.88
2022-09-07T05:19:21.582Z,1009.94
2022-09-07T05:20:21.601Z,1009.94
2022-09-07T05:21:21.620Z,1009.98
2022-09-07T05:22:21.637Z,1009.94
2022-09-07T05:23:21.657Z,1009.95
2022-09-07T05:24:21.677Z,1009.96
2022-09-07T05:25:21.694Z,1009.95
2022-09-07T05:26:21.710Z,1009.89
2022-09-07T05:27:21.726Z,1009.90
2022-09-07T05:28:21.747Z,1009.89
2022-09-07T05:31:21.836Z,1009.88
2022-09-07T05:32:21.841Z,1009.90
2022-09-07T05:33:22.426Z,1009.93
2022-09-07T05:35:21.872Z,1009.93
2022-09-07T05:36:21.892Z,1009.95
2022-09-07T05:37:21.960Z,1009.93
2022-09-07T05:38:21.929Z,1009.97
2022-09-07T05:39:21.947Z,1010.00
2022-09-07T05:40:21.964Z,1009.97
2022-09-07T05:41:21.982Z,1009.96
2022-09-07T05:42:22.002Z,1009.93
2022-09-07T05:43:22.022Z,1009.91
2022-09-07T05:45:22.057Z,1009.90
2022-09-07T05:46:22.075Z,1009.90
2022-09-07T05:47:22.092Z,1009.91
2022-09-07T05:48:22.110Z,1009.94
2022-09-07T05:49:22.128Z,1009.92
2022-09-07T05:50:22.147Z,1009.92
2022-09-07T05:51:22.169Z,1009.95
2022-09-07T05:52:22.183Z,1009.96
2022-09-07T05:53:22.199Z,1009.91
2022-09-07T05:54:22.218Z,1009.93
2022-09-07T05:55:30.084Z,1009.93
2022-09-07T05:56:22.255Z,1009.93
2022-09-07T05:57:22.275Z,1009.90
2022-09-07T05:58:22.296Z,1009.88
2022-09-07T05:59:22.313Z,1009.91
2022-09-07T06:00:22.330Z,1009.90
2022-09-07T06:01:22.349Z,1009.90
2022-09-07T06:02:22.483Z,1009.91
2022-09-07T06:03:22.476Z,1009.94
2022-09-07T06:04:22.403Z,1009.97
2022-09-07T06:05:22.429Z,1010.02
2022-09-07T06:06:22.441Z,1010.01
2022-09-07T06:07:23.235Z,1010.06
2022-09-07T06:08:22.478Z,1010.01
2022-09-07T06:09:22.496Z,1010.02
2022-09-07T06:11:22.559Z,1010.01
2022-09-07T06:12:22.557Z,1009.99
2022-09-07T06:13:22.573Z,1010.05
2022-09-07T06:14:22.594Z,1009.97
2022-09-07T06:15:22.609Z,1009.97
2022-09-07T06:16:22.692Z,1010.01
2022-09-07T06:17:22.652Z,1009.99
2022-09-07T06:18:22.685Z,1010.07
2022-09-07T06:19:22.683Z,1010.05
2022-09-07T06:20:22.702Z,1010.01
2022-09-07T06:21:22.762Z,1010.04
2022-09-07T06:22:22.738Z,1010.03
2022-09-07T06:23:22.759Z,1010.05
2022-09-07T06:24:22.777Z,1010.01
2022-09-07T06:25:22.799Z,1010.02
2022-09-07T06:26:22.815Z,1010.01
2022-09-07T06:27:22.836Z,1010.01
2022-09-07T06:28:22.854Z,1010.03
2022-09-07T06:29:22.872Z,1010.03
2022-09-07T06:30:22.891Z,1009.97
2022-09-07T06:31:23.297Z,1010.02
2022-09-07T06:33:22.955Z,1009.95
2022-09-07T06:34:22.968Z,1009.97
2022-09-07T06:35:22.986Z,1009.98
2022-09-07T06:36:23.007Z,1010.05
2022-09-07T06:37:23.030Z,1010.06
2022-09-07T06:38:23.046Z,1010.06
2022-09-07T06:39:23.065Z,1010.02
2022-09-07T06:40:23.089Z,1010.01
2022-09-07T06:42:23.126Z,1009.99
2022-09-07T06:43:23.144Z,1009.99
2022-09-07T06:44:23.165Z,1009.99
2022-09-07T06:45:23.200Z,1010.01
2022-09-07T06:47:23.222Z,1009.95
2022-09-07T06:48:23.245Z,1009.98
2022-09-07T06:49:23.261Z,1009.91
2022-09-07T06:50:23.281Z,1009.92
2022-09-07T06:51:23.301Z,1009.94
2022-09-07T06:52:23.479Z,1009.96
2022-09-07T06:53:40.453Z,1009.93
2022-09-07T06:55:23.384Z,1009.85
2022-09-07T06:56:23.404Z,1009.84
2022-09-07T06:57:23.425Z,1009.85
2022-09-07T06:58:23.443Z,1009.86
2022-09-07T06:59:23.461Z,1009.83
2022-09-07T07:00:23.492Z,1009.83
2022-09-07T07:01:23.556Z,1009.85
2022-09-07T07:02:23.522Z,1009.85
2022-09-07T07:03:23.591Z,1009.90
2022-09-07T07:04:23.564Z,1009.82
2022-09-07T07:05:23.586Z,1009.81
2022-09-07T07:06:23.605Z,1009.78
2022-09-07T07:07:23.625Z,1009.77
2022-09-07T07:08:23.649Z,1009.78
2022-09-07T07:09:23.670Z,1009.79
2022-09-07T07:10:24.953Z,1009.81
2022-09-07T07:11:23.706Z,1009.82
2022-09-07T07:13:02.846Z,1009.85
2022-09-07T07:14:02.864Z,1009.86
2022-09-07T07:15:02.886Z,1009.80
2022-09-07T07:16:02.963Z,1009.79
2022-09-07T07:17:02.927Z,1009.79
2022-09-07T07:18:19.930Z,1009.74
2022-09-07T07:19:02.970Z,1009.67
2022-09-07T07:20:02.989Z,1009.71
2022-09-07T07:21:03.009Z,1009.67
2022-09-07T07:22:18.590Z,1009.70
2022-09-07T07:23:03.050Z,1009.66
2022-09-07T07:24:07.493Z,1009.69
2022-09-07T07:25:03.124Z,1009.72
2022-09-07T07:26:03.112Z,1009.68
2022-09-07T07:27:03.134Z,1009.73
2022-09-07T07:29:03.921Z,1009.75
2022-09-07T07:30:03.198Z,1009.78
2022-09-07T07:31:07.172Z,1009.75
2022-09-07T07:32:03.238Z,1009.77
2022-09-07T07:33:03.305Z,1009.80
2022-09-07T07:34:03.302Z,1009.78
2022-09-07T07:35:03.413Z,1009.82
2022-09-07T07:36:03.323Z,1009.82
2022-09-07T07:37:03.346Z,1009.83
2022-09-07T07:39:03.507Z,1009.82
2022-09-07T07:40:21.344Z,1009.82
2022-09-07T07:42:05.544Z,1009.81
2022-09-07T07:43:03.477Z,1009.74
2022-09-07T07:44:03.497Z,1009.76
2022-09-07T07:46:05.604Z,1009.75
2022-09-07T07:47:03.602Z,1009.73
2022-09-07T07:48:03.598Z,1009.71
2022-09-07T07:49:03.613Z,1009.67
2022-09-07T07:51:09.882Z,1009.64
2022-09-07T07:54:03.718Z,1009.60
2022-09-07T07:55:43.010Z,1009.57
2022-09-07T07:56:03.761Z,1009.56
2022-09-07T07:57:04.220Z,1009.61
2022-09-07T07:58:03.806Z,1009.61
2022-09-07T07:59:03.833Z,1009.62
2022-09-07T08:00:03.850Z,1009.68
2022-09-07T08:01:03.917Z,1009.67
2022-09-07T08:02:03.999Z,1009.66
2022-09-07T08:03:03.919Z,1009.66
2022-09-07T08:04:03.939Z,1009.62
2022-09-07T08:05:03.960Z,1009.60
2022-09-07T08:06:03.982Z,1009.65
2022-09-07T08:07:09.446Z,1009.62
2022-09-07T08:08:04.028Z,1009.65
2022-09-07T08:09:04.051Z,1009.70
2022-09-07T08:10:04.074Z,1009.64
2022-09-07T08:11:04.093Z,1009.65
2022-09-07T08:12:04.133Z,1009.65
2022-09-07T08:13:04.139Z,1009.68
2022-09-07T08:14:04.158Z,1009.70
2022-09-07T08:15:04.180Z,1009.74
2022-09-07T08:16:04.287Z,1009.76
2022-09-07T08:17:04.228Z,1009.75
2022-09-07T08:18:04.243Z,1009.73
2022-09-07T08:19:04.297Z,1009.71
2022-09-07T08:20:04.290Z,1009.72
2022-09-07T08:21:04.312Z,1009.69
2022-09-07T08:22:04.338Z,1009.67
2022-09-07T08:23:04.358Z,1009.66
2022-09-07T08:24:04.379Z,1009.67
2022-09-07T08:25:04.398Z,1009.70
2022-09-07T08:26:04.418Z,1009.74
2022-09-07T08:27:04.572Z,1009.77
2022-09-07T08:28:04.470Z,1009.81
2022-09-07T08:29:04.490Z,1009.76
2022-09-07T08:30:04.509Z,1009.81
2022-09-07T08:31:04.577Z,1009.77
2022-09-07T08:32:04.567Z,1009.77
2022-09-07T08:33:04.592Z,1009.70
2022-09-07T08:34:04.599Z,1009.68
2022-09-07T08:35:04.623Z,1009.72
2022-09-07T08:36:04.646Z,1009.65
2022-09-07T08:37:04.663Z,1009.64
2022-09-07T08:38:04.685Z,1009.61
2022-09-07T08:39:04.707Z,1009.57
2022-09-07T08:40:04.758Z,1009.54
2022-09-07T08:41:04.752Z,1009.53
2022-09-07T08:42:04.770Z,1009.51
2022-09-07T08:43:04.794Z,1009.53
2022-09-07T08:44:04.818Z,1009.48
2022-09-07T08:45:04.839Z,1009.51
2022-09-07T08:46:04.864Z,1009.49
2022-09-07T08:47:04.995Z,1009.52
2022-09-07T08:48:04.908Z,1009.51
2022-09-07T08:49:04.927Z,1009.48
2022-09-07T08:50:04.958Z,1009.53
2022-09-07T08:51:04.972Z,1009.53
2022-09-07T08:52:04.994Z,1009.54
2022-09-07T08:53:05.017Z,1009.57
2022-09-07T08:54:05.041Z,1009.44
2022-09-07T08:55:05.066Z,1009.50
2022-09-07T08:56:05.084Z,1009.50
2022-09-07T08:57:20.865Z,1009.49
2022-09-07T08:58:05.130Z,1009.44
2022-09-07T08:59:05.152Z,1009.39
2022-09-07T09:00:05.179Z,1009.37
2022-09-07T09:04:22.004Z,1009.31
2022-09-07T09:05:20.595Z,1009.32
2022-09-07T09:06:05.430Z,1009.36
2022-09-07T09:07:05.454Z,1009.39
2022-09-07T09:08:05.355Z,1009.40
2022-09-07T09:09:05.379Z,1009.40
2022-09-07T09:10:05.399Z,1009.38
2022-09-07T09:11:05.424Z,1009.36
2022-09-07T09:12:05.449Z,1009.42
2022-09-07T09:13:05.470Z,1009.45
2022-09-07T09:14:05.495Z,1009.45
2022-09-07T09:15:05.518Z,1009.46
2022-09-07T09:16:05.577Z,1009.45
2022-09-07T09:17:05.565Z,1009.45
2022-09-07T09:18:05.585Z,1009.47
2022-09-07T09:19:05.609Z,1009.43
2022-09-07T09:20:05.631Z,1009.42
2022-09-07T09:21:05.656Z,1009.42
2022-09-07T09:22:05.678Z,1009.41
2022-09-07T09:23:05.705Z,1009.43
2022-09-07T09:24:05.725Z,1009.42
2022-09-07T09:25:05.758Z,1009.42
2022-09-07T09:26:05.771Z,1009.42
2022-09-07T09:27:05.794Z,1009.35
2022-09-07T09:28:05.825Z,1009.38
2022-09-07T09:29:05.841Z,1009.42
2022-09-07T09:30:05.863Z,1009.32
2022-09-07T09:31:05.971Z,1009.29
2022-09-07T09:32:05.911Z,1009.29
2022-09-07T09:33:05.936Z,1009.30
2022-09-07T09:34:05.957Z,1009.34
2022-09-07T09:35:05.983Z,1009.33
2022-09-07T09:36:06.005Z,1009.31
2022-09-07T09:37:06.037Z,1009.33
2022-09-07T09:38:06.050Z,1009.30
2022-09-07T09:39:06.075Z,1009.30
2022-09-07T09:40:06.146Z,1009.25
2022-09-07T09:41:06.123Z,1009.22
2022-09-07T09:42:06.144Z,1009.25
2022-09-07T09:43:06.172Z,1009.25
2022-09-07T09:44:06.193Z,1009.20
2022-09-07T09:45:06.215Z,1009.30
2022-09-07T09:46:13.336Z,1009.28
2022-09-07T09:48:06.287Z,1009.22
2022-09-07T09:49:06.308Z,1009.23
2022-09-07T09:50:06.688Z,1009.25
2022-09-07T09:53:06.405Z,1009.21
2022-09-07T09:54:06.428Z,1009.23
2022-09-07T09:55:30.640Z,1009.17
2022-09-07T09:56:06.478Z,1009.13
2022-09-07T09:57:06.504Z,1009.08
2022-09-07T09:59:56.893Z,1009.03
2022-09-07T10:00:10.509Z,1009.00
2022-09-07T10:01:22.668Z,1009.01
2022-09-07T10:04:11.714Z,1009.04
2022-09-07T10:05:06.694Z,1009.04
2022-09-07T10:06:06.715Z,1009.05
2022-09-07T10:07:06.740Z,1009.02
2022-09-07T10:08:06.764Z,1009.04
2022-09-07T10:09:06.787Z,1009.08
2022-09-07T10:10:06.811Z,1009.01
2022-09-07T10:11:06.838Z,1009.09
2022-09-07T10:12:07.562Z,1008.98
2022-09-07T10:13:06.884Z,1008.99
2022-09-07T10:14:06.909Z,1008.99
2022-09-07T10:15:06.937Z,1009.02
2022-09-07T10:16:07.081Z,1009.07
2022-09-07T10:17:06.983Z,1009.02
2022-09-07T10:18:07.010Z,1009.03
2022-09-07T10:19:07.040Z,1009.02
2022-09-07T10:20:07.054Z,1009.00
2022-09-07T10:21:07.081Z,1009.03
2022-09-07T10:22:07.110Z,1009.03
2022-09-07T10:23:07.140Z,1009.03
2022-09-07T10:24:07.153Z,1009.04
2022-09-07T10:25:07.181Z,1009.03
2022-09-07T10:26:07.211Z,1009.05
2022-09-07T10:27:07.229Z,1009.04
2022-09-07T10:28:07.254Z,1009.08
2022-09-07T10:29:07.726Z,1009.09
2022-09-07T10:30:07.310Z,1009.13
2022-09-07T10:31:11.018Z,1009.10
2022-09-07T10:32:07.356Z,1009.09
2022-09-07T10:33:07.383Z,1009.07
2022-09-07T10:35:07.431Z,1009.02
2022-09-07T10:36:07.458Z,1009.07
2022-09-07T10:37:07.484Z,1009.07
2022-09-07T10:38:07.509Z,1009.05
2022-09-07T10:39:07.533Z,1009.09
2022-09-07T10:40:07.587Z,1009.07
2022-09-07T10:41:07.585Z,1009.11
2022-09-07T10:42:07.611Z,1009.11
2022-09-07T10:43:22.996Z,1009.08
2022-09-07T10:44:07.665Z,1009.11
2022-09-07T10:45:07.688Z,1009.12
2022-09-07T10:46:07.754Z,1009.14
2022-09-07T10:47:07.779Z,1009.13
2022-09-07T10:48:07.766Z,1009.07
2022-09-07T10:49:07.794Z,1009.07
2022-09-07T10:50:23.133Z,1009.08
2022-09-07T10:51:14.052Z,1009.03
2022-09-07T10:52:07.869Z,1009.06
2022-09-07T10:53:29.981Z,1008.97
2022-09-07T10:55:07.951Z,1008.95
2022-09-07T10:56:07.975Z,1008.92
2022-09-07T10:57:08.002Z,1008.90
2022-09-07T10:58:08.028Z,1008.89
2022-09-07T10:59:08.057Z,1008.87
2022-09-07T11:00:08.613Z,1008.85
2022-09-07T11:01:08.157Z,1008.87
2022-09-07T11:02:08.134Z,1008.84
2022-09-07T11:04:08.189Z,1008.79
2022-09-07T11:05:08.216Z,1008.79
2022-09-07T11:06:08.249Z,1008.76
2022-09-07T11:07:10.333Z,1008.79
2022-09-07T11:08:08.293Z,1008.80
2022-09-07T11:09:16.558Z,1008.81
2022-09-07T11:10:08.435Z,1008.83
2022-09-07T11:11:08.372Z,1008.88
2022-09-07T11:12:08.457Z,1008.95
2022-09-07T11:13:08.426Z,1008.92
2022-09-07T11:14:13.603Z,1008.87
2022-09-07T11:15:08.486Z,1008.94
2022-09-07T11:16:08.723Z,1008.96
2022-09-07T11:17:08.627Z,1008.93
2022-09-07T11:18:08.559Z,1008.89
2022-09-07T11:20:08.677Z,1008.89
2022-09-07T11:21:08.637Z,1008.92
2022-09-07T11:22:08.667Z,1008.88
2022-09-07T11:23:10.871Z,1008.91
2022-09-07T11:24:08.720Z,1008.84
2022-09-07T11:26:08.773Z,1008.84
2022-09-07T11:27:08.801Z,1008.79
2022-09-07T11:28:08.827Z,1008.75
2022-09-07T11:30:08.882Z,1008.77
2022-09-07T11:31:08.929Z,1008.73
2022-09-07T11:32:08.943Z,1008.69
2022-09-07T11:33:08.967Z,1008.71
2022-09-07T11:34:24.609Z,1008.73
2022-09-07T11:35:09.027Z,1008.74
2022-09-07T11:36:12.228Z,1008.75
2022-09-07T11:37:09.072Z,1008.78
2022-09-07T11:38:09.100Z,1008.80
2022-09-07T11:39:09.128Z,1008.78
2022-09-07T11:40:09.353Z,1008.78
2022-09-07T11:41:09.183Z,1008.78
2022-09-07T11:43:11.419Z,1008.81
2022-09-07T11:44:09.264Z,1008.81
2022-09-07T11:45:09.292Z,1008.88
2022-09-07T11:46:09.351Z,1008.89
2022-09-07T11:47:09.345Z,1008.92
2022-09-07T11:48:09.375Z,1008.97
2022-09-07T11:49:09.399Z,1008.96
2022-09-07T11:50:09.427Z,1008.96
2022-09-07T11:51:09.454Z,1009.00
2022-09-07T11:52:09.481Z,1008.96
2022-09-07T11:53:09.508Z,1009.01
2022-09-07T11:54:09.534Z,1008.94
2022-09-07T11:55:09.564Z,1008.88
2022-09-07T11:56:09.591Z,1008.90
2022-09-07T11:57:09.616Z,1008.88
2022-09-07T11:58:09.642Z,1008.87
2022-09-07T11:59:09.668Z,1008.88
2022-09-07T12:00:09.699Z,1008.88
2022-09-07T12:01:09.727Z,1008.88
2022-09-07T12:02:09.773Z,1008.91
2022-09-07T12:03:09.812Z,1008.89
2022-09-07T12:04:14.651Z,1008.82
2022-09-07T12:05:09.834Z,1008.82
2022-09-07T12:06:09.861Z,1008.86
2022-09-07T12:07:09.888Z,1008.81
2022-09-07T12:08:09.914Z,1008.83
2022-09-07T12:09:09.941Z,1008.81
2022-09-07T12:10:09.968Z,1008.83
2022-09-07T12:11:09.996Z,1008.84
2022-09-07T12:12:10.027Z,1008.82
2022-09-07T12:13:10.049Z,1008.84
2022-09-07T12:14:10.082Z,1008.82
2022-09-07T12:15:10.109Z,1008.85
2022-09-07T12:16:10.173Z,1008.80
2022-09-07T12:17:10.164Z,1008.79
2022-09-07T12:18:10.189Z,1008.73
2022-09-07T12:19:10.221Z,1008.69
2022-09-07T12:20:10.246Z,1008.66
2022-09-07T12:21:10.285Z,1008.61
2022-09-07T12:22:10.300Z,1008.62
2022-09-07T12:23:10.327Z,1008.61
2022-09-07T12:24:10.357Z,1008.61
2022-09-07T12:25:10.383Z,1008.61
2022-09-07T12:26:10.420Z,1008.58
2022-09-07T12:27:10.440Z,1008.57
2022-09-07T12:28:10.471Z,1008.56
2022-09-07T12:29:10.497Z,1008.56
2022-09-07T12:30:10.524Z,1008.51
2022-09-07T12:31:10.577Z,1008.55
2022-09-07T12:33:10.608Z,1008.53
2022-09-07T12:34:10.640Z,1008.53
2022-09-07T12:35:10.663Z,1008.50
2022-09-07T12:36:10.692Z,1008.55
2022-09-07T12:37:12.579Z,1008.49
2022-09-07T12:38:10.746Z,1008.52
2022-09-07T12:39:10.774Z,1008.45